createdAt,value
2023-05-04T00:00:11.000Z,1022.72
2023-05-04T00:01:11.000Z,1022.74
2023-05-04T00:02:11.000Z,1022.74
2023-05-04T00:03:11.000Z,1022.73
2023-05-04T00:04:12.000Z,1022.72
2023-05-04T00:05:11.000Z,1022.71
2023-05-04T00:06:11.000Z,1022.69
2023-05-04T00:07:11.000Z,1022.68
2023-05-04T00:08:11.000Z,1022.64
2023-05-04T00:09:12.000Z,1022.64
2023-05-04T00:10:11.000Z,1022.64
2023-05-04T00:11:11.000Z,1022.64
2023-05-04T00:12:11.000Z,1022.65
2023-05-04T00:13:11.000Z,1022.61
2023-05-04T00:14:11.000Z,1022.63
2023-05-04T00:15:11.000Z,1022.63
2023-05-04T00:16:11.000Z,1022.66
2023-05-04T00:17:11.000Z,1022.68
2023-05-04T00:18:11.000Z,1022.67
2023-05-04T00:19:10.000Z,1022.60
2023-05-04T00:20:11.000Z,1022.60
2023-05-04T00:21:11.000Z,1022.59
2023-05-04T00:22:10.000Z,1022.58
2023-05-04T00:23:11.000Z,1022.58
2023-05-04T00:24:11.000Z,1022.58
2023-05-04T00:25:11.000Z,1022.56
2023-05-04T00:26:11.000Z,1022.54
2023-05-04T00:27:11.000Z,1022.51
2023-05-04T00:28:11.000Z,1022.52
2023-05-04T00:29:11.000Z,1022.47
2023-05-04T00:30:11.000Z,1022.46
2023-05-04T00:31:11.000Z,1022.47
2023-05-04T00:32:10.000Z,1022.43
2023-05-04T00:33:10.000Z,1022.42
2023-05-04T00:34:11.000Z,1022.43
2023-05-04T00:35:11.000Z,1022.36
2023-05-04T00:36:12.000Z,1022.37
2023-05-04T00:37:11.000Z,1022.38
2023-05-04T00:38:11.000Z,1022.34
2023-05-04T00:39:11.000Z,1022.34
2023-05-04T00:40:11.000Z,1022.33
2023-05-04T00:41:11.000Z,1022.31
2023-05-04T00:42:11.000Z,1022.31
2023-05-04T00:43:11.000Z,1022.30
2023-05-04T00:44:11.000Z,1022.27
2023-05-04T00:45:12.000Z,1022.27
2023-05-04T00:46:11.000Z,1022.25
2023-05-04T00:47:11.000Z,1022.24
2023-05-04T00:48:11.000Z,1022.23
2023-05-04T00:49:10.000Z,1022.24
2023-05-04T00:50:11.000Z,1022.21
2023-05-04T00:51:14.000Z,1022.24
2023-05-04T00:52:14.000Z,1022.27
2023-05-04T00:53:10.000Z,1022.26
2023-05-04T00:54:14.000Z,1022.26
2023-05-04T00:55:12.000Z,1022.23
2023-05-04T00:56:11.000Z,1022.27
2023-05-04T00:57:11.000Z,1022.24
2023-05-04T00:58:10.000Z,1022.21
2023-05-04T00:59:12.000Z,1022.25
2023-05-04T01:00:11.000Z,1022.28
2023-05-04T01:01:10.000Z,1022.22
2023-05-04T01:02:11.000Z,1022.24
2023-05-04T01:03:11.000Z,1022.28
2023-05-04T01:04:11.000Z,1022.21
2023-05-04T01:05:11.000Z,1022.22
2023-05-04T01:06:20.000Z,1022.24
2023-05-04T01:07:20.000Z,1022.23
2023-05-04T01:08:16.000Z,1022.20
2023-05-04T01:09:34.000Z,1022.21
2023-05-04T01:10:20.000Z,1022.22
2023-05-04T01:11:18.000Z,1022.25
2023-05-04T01:12:29.000Z,1022.25
2023-05-04T01:13:13.000Z,1022.25
2023-05-04T01:14:12.000Z,1022.21
2023-05-04T01:15:11.000Z,1022.27
2023-05-04T01:16:11.000Z,1022.24
2023-05-04T01:17:11.000Z,1022.27
2023-05-04T01:18:11.000Z,1022.20
2023-05-04T01:19:11.000Z,1022.23
2023-05-04T01:20:12.000Z,1022.18
2023-05-04T01:21:11.000Z,1022.18
2023-05-04T01:22:11.000Z,1022.14
2023-05-04T01:23:11.000Z,1022.18
2023-05-04T01:24:11.000Z,1022.16
2023-05-04T01:25:11.000Z,1022.17
2023-05-04T01:26:31.000Z,1022.12
2023-05-04T01:27:21.000Z,1022.11
2023-05-04T01:28:18.000Z,1022.13
2023-05-04T01:29:16.000Z,1022.14
2023-05-04T01:30:19.000Z,1022.16
2023-05-04T01:31:13.000Z,1022.17
2023-05-04T01:32:13.000Z,1022.13
2023-05-04T01:33:12.000Z,1022.14
2023-05-04T01:34:12.000Z,1022.16
2023-05-04T01:35:14.000Z,1022.15
2023-05-04T01:36:11.000Z,1022.17
2023-05-04T01:37:11.000Z,1022.16
2023-05-04T01:38:11.000Z,1022.13
2023-05-04T01:39:11.000Z,1022.15
2023-05-04T01:40:11.000Z,1022.11
2023-05-04T01:41:11.000Z,1022.18
2023-05-04T01:42:11.000Z,1022.16
2023-05-04T01:43:11.000Z,1022.19
2023-05-04T01:44:11.000Z,1022.18
2023-05-04T01:45:11.000Z,1022.21
2023-05-04T01:46:11.000Z,1022.18
2023-05-04T01:47:11.000Z,1022.23
2023-05-04T01:48:11.000Z,1022.22
2023-05-04T01:49:11.000Z,1022.24
2023-05-04T01:50:10.000Z,1022.28
2023-05-04T01:51:10.000Z,1022.24
2023-05-04T01:52:11.000Z,1022.27
2023-05-04T01:53:10.000Z,1022.28
2023-05-04T01:54:11.000Z,1022.29
2023-05-04T01:55:11.000Z,1022.30
2023-05-04T01:56:11.000Z,1022.28
2023-05-04T01:57:10.000Z,1022.27
2023-05-04T01:58:11.000Z,1022.30
2023-05-04T01:59:11.000Z,1022.27
2023-05-04T02:00:13.000Z,1022.34
2023-05-04T02:01:11.000Z,1022.28
2023-05-04T02:02:10.000Z,1022.29
2023-05-04T02:03:11.000Z,1022.30
2023-05-04T02:04:10.000Z,1022.26
2023-05-04T02:05:10.000Z,1022.27
2023-05-04T02:06:11.000Z,1022.32
2023-05-04T02:07:11.000Z,1022.28
2023-05-04T02:08:10.000Z,1022.28
2023-05-04T02:09:11.000Z,1022.26
2023-05-04T02:10:11.000Z,1022.31
2023-05-04T02:11:12.000Z,1022.29
2023-05-04T02:12:10.000Z,1022.30
2023-05-04T02:13:10.000Z,1022.30
2023-05-04T02:14:10.000Z,1022.30
2023-05-04T02:15:11.000Z,1022.28
2023-05-04T02:16:11.000Z,1022.29
2023-05-04T02:17:11.000Z,1022.31
2023-05-04T02:18:11.000Z,1022.30
2023-05-04T02:19:10.000Z,1022.27
2023-05-04T02:20:11.000Z,1022.30
2023-05-04T02:21:12.000Z,1022.29
2023-05-04T02:22:11.000Z,1022.29
2023-05-04T02:23:11.000Z,1022.26
2023-05-04T02:24:11.000Z,1022.27
2023-05-04T02:25:11.000Z,1022.25
2023-05-04T02:26:11.000Z,1022.25
2023-05-04T02:27:11.000Z,1022.25
2023-05-04T02:28:11.000Z,1022.24
2023-05-04T02:29:11.000Z,1022.22
2023-05-04T02:30:12.000Z,1022.21
2023-05-04T02:31:11.000Z,1022.22
2023-05-04T02:32:11.000Z,1022.23
2023-05-04T02:33:11.000Z,1022.21
2023-05-04T02:34:11.000Z,1022.23
2023-05-04T02:35:11.000Z,1022.27
2023-05-04T02:36:11.000Z,1022.22
2023-05-04T02:37:11.000Z,1022.26
2023-05-04T02:38:11.000Z,1022.26
2023-05-04T02:39:11.000Z,1022.23
2023-05-04T02:40:11.000Z,1022.25
2023-05-04T02:41:11.000Z,1022.22
2023-05-04T02:42:12.000Z,1022.22
2023-05-04T02:43:11.000Z,1022.20
2023-05-04T02:44:11.000Z,1022.18
2023-05-04T02:45:11.000Z,1022.22
2023-05-04T02:46:11.000Z,1022.21
2023-05-04T02:47:11.000Z,1022.19
2023-05-04T02:48:11.000Z,1022.21
2023-05-04T02:49:11.000Z,1022.19
2023-05-04T02:50:11.000Z,1022.15
2023-05-04T02:51:11.000Z,1022.16
2023-05-04T02:52:10.000Z,1022.15
2023-05-04T02:53:10.000Z,1022.13
2023-05-04T02:54:11.000Z,1022.17
2023-05-04T02:55:11.000Z,1022.15
2023-05-04T02:56:10.000Z,1022.14
2023-05-04T02:57:10.000Z,1022.11
2023-05-04T02:58:10.000Z,1022.13
2023-05-04T02:59:10.000Z,1022.14
2023-05-04T03:00:11.000Z,1022.10
2023-05-04T03:01:10.000Z,1022.11
2023-05-04T03:02:10.000Z,1022.13
2023-05-04T03:03:11.000Z,1022.11
2023-05-04T03:04:11.000Z,1022.18
2023-05-04T03:05:10.000Z,1022.18
2023-05-04T03:06:10.000Z,1022.16
2023-05-04T03:07:11.000Z,1022.15
2023-05-04T03:08:10.000Z,1022.14
2023-05-04T03:09:11.000Z,1022.13
2023-05-04T03:10:11.000Z,1022.15
2023-05-04T03:11:10.000Z,1022.13
2023-05-04T03:12:11.000Z,1022.14
2023-05-04T03:13:10.000Z,1022.13
2023-05-04T03:14:10.000Z,1022.12
2023-05-04T03:15:11.000Z,1022.17
2023-05-04T03:16:11.000Z,1022.17
2023-05-04T03:17:11.000Z,1022.16
2023-05-04T03:18:10.000Z,1022.22
2023-05-04T03:19:10.000Z,1022.14
2023-05-04T03:20:11.000Z,1022.18
2023-05-04T03:21:10.000Z,1022.18
2023-05-04T03:22:11.000Z,1022.16
2023-05-04T03:23:10.000Z,1022.12
2023-05-04T03:24:10.000Z,1022.15
2023-05-04T03:25:10.000Z,1022.15
2023-05-04T03:26:10.000Z,1022.10
2023-05-04T03:27:10.000Z,1022.11
2023-05-04T03:28:10.000Z,1022.09
2023-05-04T03:29:10.000Z,1022.10
2023-05-04T03:30:11.000Z,1022.10
2023-05-04T03:31:10.000Z,1022.07
2023-05-04T03:32:11.000Z,1022.08
2023-05-04T03:33:11.000Z,1022.08
2023-05-04T03:34:13.000Z,1022.07
2023-05-04T03:35:12.000Z,1022.07
2023-05-04T03:36:10.000Z,1022.09
2023-05-04T03:37:10.000Z,1022.08
2023-05-04T03:38:10.000Z,1022.03
2023-05-04T03:39:10.000Z,1022.05
2023-05-04T03:40:11.000Z,1022.00
2023-05-04T03:41:11.000Z,1022.01
2023-05-04T03:42:10.000Z,1021.98
2023-05-04T03:43:10.000Z,1021.98
2023-05-04T03:44:10.000Z,1021.98
2023-05-04T03:45:10.000Z,1021.93
2023-05-04T03:46:11.000Z,1021.95
2023-05-04T03:47:10.000Z,1021.91
2023-05-04T03:48:11.000Z,1021.89
2023-05-04T03:49:12.000Z,1021.89
2023-05-04T03:50:11.000Z,1021.88
2023-05-04T03:51:10.000Z,1021.88
2023-05-04T03:52:10.000Z,1021.84
2023-05-04T03:53:10.000Z,1021.82
2023-05-04T03:54:11.000Z,1021.85
2023-05-04T03:55:11.000Z,1021.92
2023-05-04T03:56:11.000Z,1021.89
2023-05-04T03:57:11.000Z,1021.90
2023-05-04T03:58:11.000Z,1021.89
2023-05-04T03:59:11.000Z,1021.92
2023-05-04T04:00:11.000Z,1021.92
2023-05-04T04:01:11.000Z,1021.90
2023-05-04T04:02:11.000Z,1021.89
2023-05-04T04:03:11.000Z,1021.91
2023-05-04T04:04:11.000Z,1021.90
2023-05-04T04:05:10.000Z,1021.89
2023-05-04T04:06:11.000Z,1021.91
2023-05-04T04:07:11.000Z,1021.90
2023-05-04T04:08:12.000Z,1021.93
2023-05-04T04:09:11.000Z,1021.93
2023-05-04T04:10:11.000Z,1021.92
2023-05-04T04:11:11.000Z,1021.94
2023-05-04T04:12:11.000Z,1021.95
2023-05-04T04:13:10.000Z,1021.93
2023-05-04T04:14:11.000Z,1021.97
2023-05-04T04:15:11.000Z,1021.95
2023-05-04T04:16:11.000Z,1021.92
2023-05-04T04:17:11.000Z,1021.95
2023-05-04T04:18:11.000Z,1021.98
2023-05-04T04:19:11.000Z,1021.95
2023-05-04T04:20:11.000Z,1021.97
2023-05-04T04:21:11.000Z,1021.98
2023-05-04T04:22:11.000Z,1021.96
2023-05-04T04:23:11.000Z,1021.97
2023-05-04T04:24:10.000Z,1021.95
2023-05-04T04:25:10.000Z,1021.95
2023-05-04T04:26:10.000Z,1021.95
2023-05-04T04:27:11.000Z,1021.97
2023-05-04T04:28:11.000Z,1021.94
2023-05-04T04:29:10.000Z,1021.97
2023-05-04T04:30:11.000Z,1021.97
2023-05-04T04:31:10.000Z,1021.94
2023-05-04T04:32:10.000Z,1021.98
2023-05-04T04:33:10.000Z,1021.95
2023-05-04T04:34:10.000Z,1021.95
2023-05-04T04:35:11.000Z,1022.00
2023-05-04T04:36:14.000Z,1021.97
2023-05-04T04:37:10.000Z,1022.02
2023-05-04T04:38:10.000Z,1022.00
2023-05-04T04:39:10.000Z,1022.01
2023-05-04T04:40:11.000Z,1022.03
2023-05-04T04:41:10.000Z,1022.02
2023-05-04T04:42:11.000Z,1022.04
2023-05-04T04:43:11.000Z,1022.04
2023-05-04T04:44:10.000Z,1022.01
2023-05-04T04:45:10.000Z,1022.01
2023-05-04T04:46:10.000Z,1022.01
2023-05-04T04:47:11.000Z,1022.06
2023-05-04T04:48:11.000Z,1022.03
2023-05-04T04:49:11.000Z,1022.07
2023-05-04T04:50:11.000Z,1022.08
2023-05-04T04:51:11.000Z,1022.07
2023-05-04T04:52:10.000Z,1022.10
2023-05-04T04:53:10.000Z,1022.08
2023-05-04T04:54:10.000Z,1022.09
2023-05-04T04:55:11.000Z,1022.09
2023-05-04T04:56:11.000Z,1022.11
2023-05-04T04:57:10.000Z,1022.10
2023-05-04T04:58:11.000Z,1022.13
2023-05-04T04:59:12.000Z,1022.13
2023-05-04T05:00:14.000Z,1022.14
2023-05-04T05:01:16.000Z,1022.13
2023-05-04T05:02:10.000Z,1022.17
2023-05-04T05:03:10.000Z,1022.20
2023-05-04T05:04:11.000Z,1022.19
2023-05-04T05:05:11.000Z,1022.20
2023-05-04T05:06:11.000Z,1022.22
2023-05-04T05:07:10.000Z,1022.20
2023-05-04T05:08:11.000Z,1022.23
2023-05-04T05:09:11.000Z,1022.26
2023-05-04T05:10:11.000Z,1022.25
2023-05-04T05:11:11.000Z,1022.24
2023-05-04T05:12:11.000Z,1022.23
2023-05-04T05:13:11.000Z,1022.23
2023-05-04T05:14:11.000Z,1022.28
2023-05-04T05:15:11.000Z,1022.24
2023-05-04T05:16:10.000Z,1022.23
2023-05-04T05:17:11.000Z,1022.28
2023-05-04T05:18:10.000Z,1022.26
2023-05-04T05:19:11.000Z,1022.32
2023-05-04T05:20:11.000Z,1022.34
2023-05-04T05:21:11.000Z,1022.32
2023-05-04T05:22:11.000Z,1022.31
2023-05-04T05:23:11.000Z,1022.29
2023-05-04T05:24:10.000Z,1022.30
2023-05-04T05:25:11.000Z,1022.29
2023-05-04T05:26:10.000Z,1022.35
2023-05-04T05:27:10.000Z,1022.34
2023-05-04T05:28:14.000Z,1022.29
2023-05-04T05:29:10.000Z,1022.33
2023-05-04T05:30:11.000Z,1022.34
2023-05-04T05:31:10.000Z,1022.32
2023-05-04T05:32:11.000Z,1022.32
2023-05-04T05:33:11.000Z,1022.35
2023-05-04T05:34:11.000Z,1022.34
2023-05-04T05:35:11.000Z,1022.33
2023-05-04T05:36:11.000Z,1022.39
2023-05-04T05:37:11.000Z,1022.36
2023-05-04T05:38:11.000Z,1022.35
2023-05-04T05:39:10.000Z,1022.35
2023-05-04T05:40:12.000Z,1022.35
2023-05-04T05:41:11.000Z,1022.34
2023-05-04T05:42:11.000Z,1022.36
2023-05-04T05:43:11.000Z,1022.39
2023-05-04T05:44:10.000Z,1022.35
2023-05-04T05:45:11.000Z,1022.32
2023-05-04T05:46:11.000Z,1022.31
2023-05-04T05:47:11.000Z,1022.31
2023-05-04T05:48:10.000Z,1022.30
2023-05-04T05:49:10.000Z,1022.31
2023-05-04T05:50:11.000Z,1022.34
2023-05-04T05:51:11.000Z,1022.34
2023-05-04T05:52:11.000Z,1022.31
2023-05-04T05:53:10.000Z,1022.28
2023-05-04T05:54:11.000Z,1022.31
2023-05-04T05:55:10.000Z,1022.29
2023-05-04T05:56:11.000Z,1022.26
2023-05-04T05:57:11.000Z,1022.24
2023-05-04T05:58:11.000Z,1022.30
2023-05-04T05:59:11.000Z,1022.34
2023-05-04T06:00:12.000Z,1022.31
2023-05-04T06:01:11.000Z,1022.31
2023-05-04T06:02:13.000Z,1022.28
2023-05-04T06:03:11.000Z,1022.33
2023-05-04T06:04:11.000Z,1022.32
2023-05-04T06:05:11.000Z,1022.31
2023-05-04T06:06:11.000Z,1022.27
2023-05-04T06:07:12.000Z,1022.28
2023-05-04T06:08:11.000Z,1022.24
2023-05-04T06:09:11.000Z,1022.22
2023-05-04T06:10:11.000Z,1022.19
2023-05-04T06:11:11.000Z,1022.21
2023-05-04T06:12:13.000Z,1022.16
2023-05-04T06:13:11.000Z,1022.15
2023-05-04T06:14:11.000Z,1022.13
2023-05-04T06:15:13.000Z,1022.13
2023-05-04T06:16:11.000Z,1022.13
2023-05-04T06:17:11.000Z,1022.14
2023-05-04T06:18:11.000Z,1022.14
2023-05-04T06:19:11.000Z,1022.07
2023-05-04T06:20:11.000Z,1022.13
2023-05-04T06:21:11.000Z,1022.09
2023-05-04T06:22:11.000Z,1022.10
2023-05-04T06:23:14.000Z,1022.14
2023-05-04T06:24:11.000Z,1022.07
2023-05-04T06:25:11.000Z,1022.14
2023-05-04T06:26:11.000Z,1022.09
2023-05-04T06:27:11.000Z,1022.08
2023-05-04T06:28:10.000Z,1022.12
2023-05-04T06:29:10.000Z,1022.09
2023-05-04T06:30:12.000Z,1022.12
2023-05-04T06:31:12.000Z,1022.15
2023-05-04T06:32:10.000Z,1022.12
2023-05-04T06:33:10.000Z,1022.17
2023-05-04T06:34:10.000Z,1022.17
2023-05-04T06:35:10.000Z,1022.17
2023-05-04T06:36:11.000Z,1022.16
2023-05-04T06:37:10.000Z,1022.18
2023-05-04T06:38:10.000Z,1022.17
2023-05-04T06:39:10.000Z,1022.20
2023-05-04T06:40:11.000Z,1022.19
2023-05-04T06:41:10.000Z,1022.18
2023-05-04T06:42:10.000Z,1022.18
2023-05-04T06:43:10.000Z,1022.18
2023-05-04T06:44:10.000Z,1022.24
2023-05-04T06:45:10.000Z,1022.15
2023-05-04T06:46:10.000Z,1022.15
2023-05-04T06:47:10.000Z,1022.16
2023-05-04T06:48:10.000Z,1022.19
2023-05-04T06:49:10.000Z,1022.15
2023-05-04T06:50:11.000Z,1022.16
2023-05-04T06:51:10.000Z,1022.16
2023-05-04T06:52:10.000Z,1022.20
2023-05-04T06:53:10.000Z,1022.20
2023-05-04T06:54:11.000Z,1022.18
2023-05-04T06:55:10.000Z,1022.23
2023-05-04T06:56:10.000Z,1022.16
2023-05-04T06:57:10.000Z,1022.18
2023-05-04T06:58:10.000Z,1022.17
2023-05-04T06:59:10.000Z,1022.14
2023-05-04T07:00:11.000Z,1022.15
2023-05-04T07:01:10.000Z,1022.14
2023-05-04T07:02:10.000Z,1022.18
2023-05-04T07:03:10.000Z,1022.15
2023-05-04T07:04:11.000Z,1022.17
2023-05-04T07:05:10.000Z,1022.16
2023-05-04T07:06:10.000Z,1022.18
2023-05-04T07:07:10.000Z,1022.16
2023-05-04T07:08:10.000Z,1022.14
2023-05-04T07:09:10.000Z,1022.17
2023-05-04T07:10:10.000Z,1022.13
2023-05-04T07:11:10.000Z,1022.14
2023-05-04T07:12:10.000Z,1022.12
2023-05-04T07:13:12.000Z,1022.13
2023-05-04T07:14:10.000Z,1022.10
2023-05-04T07:15:10.000Z,1022.11
2023-05-04T07:16:10.000Z,1022.08
2023-05-04T07:17:12.000Z,1022.08
2023-05-04T07:18:10.000Z,1022.05
2023-05-04T07:19:10.000Z,1022.08
2023-05-04T07:20:11.000Z,1022.08
2023-05-04T07:21:10.000Z,1022.08
2023-05-04T07:22:11.000Z,1022.09
2023-05-04T07:23:10.000Z,1022.11
2023-05-04T07:24:10.000Z,1022.09
2023-05-04T07:25:10.000Z,1022.06
2023-05-04T07:26:10.000Z,1022.07
2023-05-04T07:27:10.000Z,1022.05
2023-05-04T07:28:10.000Z,1021.99
2023-05-04T07:29:10.000Z,1022.00
2023-05-04T07:30:11.000Z,1022.01
2023-05-04T07:31:11.000Z,1021.97
2023-05-04T07:32:10.000Z,1021.97
2023-05-04T07:33:11.000Z,1021.97
2023-05-04T07:34:10.000Z,1021.95
2023-05-04T07:35:11.000Z,1021.91
2023-05-04T07:36:10.000Z,1021.89
2023-05-04T07:37:11.000Z,1021.86
2023-05-04T07:38:10.000Z,1021.85
2023-05-04T07:39:11.000Z,1021.85
2023-05-04T07:40:13.000Z,1021.81
2023-05-04T07:41:10.000Z,1021.78
2023-05-04T07:42:10.000Z,1021.82
2023-05-04T07:43:10.000Z,1021.76
2023-05-04T07:44:11.000Z,1021.76
2023-05-04T07:45:10.000Z,1021.78
2023-05-04T07:46:11.000Z,1021.74
2023-05-04T07:47:10.000Z,1021.72
2023-05-04T07:48:10.000Z,1021.77
2023-05-04T07:49:10.000Z,1021.75
2023-05-04T07:50:11.000Z,1021.71
2023-05-04T07:51:12.000Z,1021.74
2023-05-04T07:52:10.000Z,1021.76
2023-05-04T07:53:11.000Z,1021.75
2023-05-04T07:54:13.000Z,1021.72
2023-05-04T07:55:10.000Z,1021.69
2023-05-04T07:56:11.000Z,1021.68
2023-05-04T07:57:10.000Z,1021.72
2023-05-04T07:58:11.000Z,1021.71
2023-05-04T07:59:10.000Z,1021.67
2023-05-04T08:00:11.000Z,1021.68
2023-05-04T08:01:11.000Z,1021.67
2023-05-04T08:02:11.000Z,1021.67
2023-05-04T08:03:11.000Z,1021.66
2023-05-04T08:04:10.000Z,1021.65
2023-05-04T08:05:11.000Z,1021.61
2023-05-04T08:06:11.000Z,1021.60
2023-05-04T08:07:10.000Z,1021.59
2023-05-04T08:08:11.000Z,1021.57
2023-05-04T08:09:11.000Z,1021.50
2023-05-04T08:10:10.000Z,1021.49
2023-05-04T08:11:12.000Z,1021.44
2023-05-04T08:12:11.000Z,1021.48
2023-05-04T08:13:10.000Z,1021.48
2023-05-04T08:14:11.000Z,1021.43
2023-05-04T08:15:11.000Z,1021.43
2023-05-04T08:16:11.000Z,1021.44
2023-05-04T08:17:11.000Z,1021.46
2023-05-04T08:18:10.000Z,1021.45
2023-05-04T08:19:11.000Z,1021.36
2023-05-04T08:20:11.000Z,1021.38
2023-05-04T08:21:10.000Z,1021.32
2023-05-04T08:22:10.000Z,1021.37
2023-05-04T08:23:10.000Z,1021.29
2023-05-04T08:24:11.000Z,1021.34
2023-05-04T08:25:11.000Z,1021.31
2023-05-04T08:26:10.000Z,1021.29
2023-05-04T08:27:11.000Z,1021.24
2023-05-04T08:28:11.000Z,1021.27
2023-05-04T08:29:11.000Z,1021.30
2023-05-04T08:30:11.000Z,1021.26
2023-05-04T08:31:11.000Z,1021.28
2023-05-04T08:32:11.000Z,1021.20
2023-05-04T08:33:11.000Z,1021.22
2023-05-04T08:34:11.000Z,1021.17
2023-05-04T08:35:12.000Z,1021.18
2023-05-04T08:36:11.000Z,1021.21
2023-05-04T08:37:12.000Z,1021.19
2023-05-04T08:38:11.000Z,1021.17
2023-05-04T08:39:11.000Z,1021.14
2023-05-04T08:40:12.000Z,1021.17
2023-05-04T08:41:11.000Z,1021.17
2023-05-04T08:42:11.000Z,1021.17
2023-05-04T08:43:11.000Z,1021.18
2023-05-04T08:44:11.000Z,1021.20
2023-05-04T08:45:11.000Z,1021.18
2023-05-04T08:46:12.000Z,1021.17
2023-05-04T08:47:11.000Z,1021.18
2023-05-04T08:48:12.000Z,1021.22
2023-05-04T08:49:11.000Z,1021.17
2023-05-04T08:50:11.000Z,1021.20
2023-05-04T08:51:13.000Z,1021.16
2023-05-04T08:52:12.000Z,1021.16
2023-05-04T08:53:14.000Z,1021.19
2023-05-04T08:54:11.000Z,1021.19
2023-05-04T08:55:13.000Z,1021.09
2023-05-04T08:56:13.000Z,1021.08
2023-05-04T08:57:12.000Z,1021.09
2023-05-04T08:58:14.000Z,1021.06
2023-05-04T08:59:20.000Z,1021.03
2023-05-04T09:00:15.000Z,1021.01
2023-05-04T09:01:12.000Z,1021.04
2023-05-04T09:02:12.000Z,1020.98
2023-05-04T09:03:13.000Z,1020.95
2023-05-04T09:04:11.000Z,1020.96
2023-05-04T09:05:12.000Z,1020.96
2023-05-04T09:06:12.000Z,1020.94
2023-05-04T09:07:11.000Z,1020.95
2023-05-04T09:08:11.000Z,1020.96
2023-05-04T09:09:12.000Z,1020.95
2023-05-04T09:10:11.000Z,1020.90
2023-05-04T09:11:11.000Z,1020.90
2023-05-04T09:12:12.000Z,1020.91
2023-05-04T09:13:11.000Z,1020.97
2023-05-04T09:14:11.000Z,1020.88
2023-05-04T09:15:16.000Z,1020.87
2023-05-04T09:16:11.000Z,1020.87
2023-05-04T09:17:13.000Z,1020.88
2023-05-04T09:18:11.000Z,1020.92
2023-05-04T09:19:17.000Z,1020.82
2023-05-04T09:20:11.000Z,1020.82
2023-05-04T09:21:11.000Z,1020.86
2023-05-04T09:22:16.000Z,1020.77
2023-05-04T09:23:11.000Z,1020.75
2023-05-04T09:24:11.000Z,1020.73
2023-05-04T09:25:12.000Z,1020.74
2023-05-04T09:26:11.000Z,1020.78
2023-05-04T09:27:12.000Z,1020.74
2023-05-04T09:28:11.000Z,1020.74
2023-05-04T09:29:13.000Z,1020.71
2023-05-04T09:30:11.000Z,1020.68
2023-05-04T09:31:11.000Z,1020.72
2023-05-04T09:32:12.000Z,1020.72
2023-05-04T09:33:11.000Z,1020.70
2023-05-04T09:34:12.000Z,1020.69
2023-05-04T09:35:10.000Z,1020.59
2023-05-04T09:36:12.000Z,1020.61
2023-05-04T09:37:11.000Z,1020.64
2023-05-04T09:38:23.000Z,1020.66
2023-05-04T09:39:12.000Z,1020.59
2023-05-04T09:40:12.000Z,1020.65
2023-05-04T09:41:11.000Z,1020.64
2023-05-04T09:42:20.000Z,1020.64
2023-05-04T09:43:12.000Z,1020.65
2023-05-04T09:44:16.000Z,1020.59
2023-05-04T09:45:10.000Z,1020.56
2023-05-04T09:46:17.000Z,1020.57
2023-05-04T09:47:13.000Z,1020.55
2023-05-04T09:48:21.000Z,1020.56
2023-05-04T09:49:12.000Z,1020.54
2023-05-04T09:50:15.000Z,1020.58
2023-05-04T09:51:12.000Z,1020.52
2023-05-04T09:52:11.000Z,1020.53
2023-05-04T09:53:11.000Z,1020.47
2023-05-04T09:54:11.000Z,1020.48
2023-05-04T09:55:17.000Z,1020.45
2023-05-04T09:56:22.000Z,1020.45
2023-05-04T09:57:12.000Z,1020.45
2023-05-04T09:58:13.000Z,1020.40
2023-05-04T09:59:11.000Z,1020.41
2023-05-04T10:00:13.000Z,1020.36
2023-05-04T10:01:11.000Z,1020.32
2023-05-04T10:02:11.000Z,1020.33
2023-05-04T10:03:13.000Z,1020.30
2023-05-04T10:04:11.000Z,1020.30
2023-05-04T10:05:15.000Z,1020.32
2023-05-04T10:06:10.000Z,1020.32
2023-05-04T10:07:10.000Z,1020.30
2023-05-04T10:08:11.000Z,1020.32
2023-05-04T10:09:11.000Z,1020.36
2023-05-04T10:10:12.000Z,1020.35
2023-05-04T10:11:11.000Z,1020.32
2023-05-04T10:12:10.000Z,1020.33
2023-05-04T10:13:10.000Z,1020.31
2023-05-04T10:14:11.000Z,1020.29
2023-05-04T10:15:13.000Z,1020.30
2023-05-04T10:16:19.000Z,1020.35
2023-05-04T10:17:20.000Z,1020.33
2023-05-04T10:18:29.000Z,1020.31
2023-05-04T10:19:20.000Z,1020.27
2023-05-04T10:20:35.000Z,1020.22
2023-05-04T10:21:27.000Z,1020.23
2023-05-04T10:22:25.000Z,1020.23
2023-05-04T10:23:20.000Z,1020.25
2023-05-04T10:24:20.000Z,1020.22
2023-05-04T10:25:35.000Z,1020.23
2023-05-04T10:26:31.000Z,1020.19
2023-05-04T10:27:14.000Z,1020.18
2023-05-04T10:28:24.000Z,1020.16
2023-05-04T10:29:26.000Z,1020.22
2023-05-04T10:30:14.000Z,1020.16
2023-05-04T10:31:10.000Z,1020.19
2023-05-04T10:32:16.000Z,1020.14
2023-05-04T10:33:10.000Z,1020.15
2023-05-04T10:34:22.000Z,1020.13
2023-05-04T10:35:11.000Z,1020.13
2023-05-04T10:36:11.000Z,1020.14
2023-05-04T10:37:16.000Z,1020.13
2023-05-04T10:38:12.000Z,1020.11
2023-05-04T10:39:20.000Z,1020.09
2023-05-04T10:40:11.000Z,1020.06
2023-05-04T10:41:12.000Z,1020.03
2023-05-04T10:42:11.000Z,1020.06
2023-05-04T10:43:20.000Z,1020.00
2023-05-04T10:44:11.000Z,1019.99
2023-05-04T10:45:12.000Z,1019.99
2023-05-04T10:46:19.000Z,1019.99
2023-05-04T10:47:11.000Z,1019.99
2023-05-04T10:48:11.000Z,1019.99
2023-05-04T10:49:14.000Z,1019.96
2023-05-04T10:50:13.000Z,1019.97
2023-05-04T10:51:20.000Z,1019.94
2023-05-04T10:52:12.000Z,1019.92
2023-05-04T10:53:13.000Z,1019.86
2023-05-04T10:54:16.000Z,1019.85
2023-05-04T10:55:11.000Z,1019.82
2023-05-04T10:56:21.000Z,1019.80
2023-05-04T10:57:12.000Z,1019.74
2023-05-04T10:58:14.000Z,1019.72
2023-05-04T10:59:11.000Z,1019.72
2023-05-04T11:00:12.000Z,1019.67
2023-05-04T11:01:12.000Z,1019.68
2023-05-04T11:02:21.000Z,1019.70
2023-05-04T11:03:11.000Z,1019.64
2023-05-04T11:04:17.000Z,1019.64
2023-05-04T11:05:17.000Z,1019.63
2023-05-04T11:06:15.000Z,1019.60
2023-05-04T11:07:10.000Z,1019.59
2023-05-04T11:08:18.000Z,1019.60
2023-05-04T11:09:12.000Z,1019.58
2023-05-04T11:10:21.000Z,1019.59
2023-05-04T11:11:10.000Z,1019.51
2023-05-04T11:12:13.000Z,1019.54
2023-05-04T11:13:11.000Z,1019.49
2023-05-04T11:14:27.000Z,1019.52
2023-05-04T11:15:12.000Z,1019.49
2023-05-04T11:16:12.000Z,1019.45
2023-05-04T11:17:13.000Z,1019.42
2023-05-04T11:18:10.000Z,1019.44
2023-05-04T11:19:11.000Z,1019.42
2023-05-04T11:20:18.000Z,1019.38
2023-05-04T11:21:10.000Z,1019.36
2023-05-04T11:22:12.000Z,1019.33
2023-05-04T11:23:14.000Z,1019.33
2023-05-04T11:24:11.000Z,1019.31
2023-05-04T11:25:11.000Z,1019.28
2023-05-04T11:26:13.000Z,1019.24
2023-05-04T11:27:19.000Z,1019.24
2023-05-04T11:28:11.000Z,1019.20
2023-05-04T11:29:11.000Z,1019.21
2023-05-04T11:30:11.000Z,1019.25
2023-05-04T11:31:15.000Z,1019.22
2023-05-04T11:32:10.000Z,1019.23
2023-05-04T11:33:12.000Z,1019.21
2023-05-04T11:34:17.000Z,1019.17
2023-05-04T11:35:16.000Z,1019.17
2023-05-04T11:36:11.000Z,1019.18
2023-05-04T11:37:11.000Z,1019.15
2023-05-04T11:38:16.000Z,1019.21
2023-05-04T11:39:10.000Z,1019.17
2023-05-04T11:40:13.000Z,1019.19
2023-05-04T11:41:11.000Z,1019.15
2023-05-04T11:42:10.000Z,1019.18
2023-05-04T11:43:11.000Z,1019.15
2023-05-04T11:44:10.000Z,1019.13
2023-05-04T11:45:29.000Z,1019.08
2023-05-04T11:46:12.000Z,1019.11
2023-05-04T11:47:11.000Z,1019.10
2023-05-04T11:48:11.000Z,1019.08
2023-05-04T11:49:11.000Z,1019.01
2023-05-04T11:50:12.000Z,1018.97
2023-05-04T11:51:11.000Z,1019.00
2023-05-04T11:52:10.000Z,1018.96
2023-05-04T11:53:11.000Z,1018.97
2023-05-04T11:54:18.000Z,1018.99
2023-05-04T11:55:22.000Z,1018.93
2023-05-04T11:56:10.000Z,1018.92
2023-05-04T11:57:20.000Z,1018.88
2023-05-04T11:58:10.000Z,1018.86
2023-05-04T11:59:10.000Z,1018.85
2023-05-04T12:00:11.000Z,1018.78
2023-05-04T12:01:10.000Z,1018.78
2023-05-04T12:02:14.000Z,1018.80
2023-05-04T12:03:15.000Z,1018.82
2023-05-04T12:04:10.000Z,1018.78
2023-05-04T12:05:11.000Z,1018.82